This is the latest recevied weather packets stored in our database for station/object N3FU-13. If no packets are shown the sender has not sent any weather packets the latest 1 day(s).
| Time | Temp. | Humidity | Pressure | Rain* | Wind** | Luminosity | Snow |
|---|---|---|---|---|---|---|---|
| 1778002924 | 32.22° C | 55% | 1015.3 hPa | 0 mm | 0.89 m/s, 177° | - | - |
| 1778002024 | 32.78° C | 51% | 1015.5 hPa | 0 mm | 0.89 m/s, 115° | - | - |
| 1778001124 | 31.67° C | 55% | 1015.6 hPa | 0 mm | 0.89 m/s, 130° | - | - |
| 1778000372 | 31.67° C | 56% | 1015.8 hPa | 0 mm | 0.89 m/s, 85° | - | - |
| 1778000228 | 31.67° C | 56% | 1015.8 hPa | 0 mm | 0.89 m/s, 85° | - | - |
| 1777999324 | 32.22° C | 54% | 1015.8 hPa | 0 mm | 0.89 m/s, 90° | - | - |
| 1777998424 | 31.67° C | 56% | 1015.9 hPa | 0 mm | 0.89 m/s, 69° | - | - |
| 1777997524 | 31.67° C | 54% | 1015.9 hPa | 0 mm | 0.89 m/s, 87° | - | - |
| 1777996624 | 31.11° C | 57% | 1015.9 hPa | 0 mm | 0.89 m/s, 130° | - | - |
| 1777995724 | 30.56° C | 58% | 1016 hPa | 0 mm | 1.34 m/s, 68° | - | - |
| 1777994824 | 30° C | 59% | 1016 hPa | 0 mm | 0.89 m/s, 45° | - | - |
| 1777993924 | 30° C | 61% | 1016 hPa | 0 mm | 0.89 m/s, 93° | - | - |
| 1777993024 | 28.89° C | 63% | 1015.9 hPa | 0 mm | 1.34 m/s, 100° | - | - |
| 1777992802 | 28.33° C | 66% | 1015.9 hPa | 0 mm | 0.89 m/s, 94° | - | - |
| 1777992124 | 28.33° C | 66% | 1015.9 hPa | 0 mm | 0.89 m/s, 94° | - | - |
| 1777991224 | 27.22° C | 70% | 1015.8 hPa | 0 mm | 1.34 m/s, 74° | - | - |
| 1777990324 | 27.22° C | 69% | 1015.7 hPa | 0 mm | 1.34 m/s, 71° | - | - |
| 1777989424 | 26.67° C | 72% | 1015.6 hPa | 0 mm | 1.34 m/s, 89° | - | - |
| 1777988524 | 26.11° C | 75% | 1015.4 hPa | 0 mm | 1.34 m/s, 96° | - | - |
| 1777987624 | 25.56° C | 77% | 1015.2 hPa | 0 mm | 1.34 m/s, 318° | - | - |
| 1777986724 | 25° C | 80% | 1015.2 hPa | 0 mm | 0.89 m/s, 32° | - | - |
| 1777985824 | 23.89° C | 82% | 1015.3 hPa | 0 mm | 0.89 m/s, 76° | - | - |
| 1777985505 | 23.33° C | 84% | 1015.3 hPa | 0 mm | 0.89 m/s, 89° | - | - |
| 1777984925 | 23.33° C | 84% | 1015.3 hPa | 0 mm | 0.89 m/s, 89° | - | - |
| 1777984025 | 22.78° C | 86% | 1015.4 hPa | 0 mm | 0.89 m/s, 79° | - | - |
* Rain latest hour (hover to see other rain measurements)
** Current wind speed in m/s (hover to see current wind gust speed)